sensor_id;sensor_type;location;lat;lon;timestamp;pressure;altitude;pressure_sealevel;temperature
60966;BMP180;46834;51.100;6.886;2023-01-08T00:00:56;100146.00;;;14.40
60966;BMP180;46834;51.100;6.886;2023-01-08T00:03:22;100133.00;;;14.40
60966;BMP180;46834;51.100;6.886;2023-01-08T00:05:48;100139.00;;;14.30
60966;BMP180;46834;51.100;6.886;2023-01-08T00:08:14;100136.00;;;14.30
60966;BMP180;46834;51.100;6.886;2023-01-08T00:10:40;100133.00;;;14.30
60966;BMP180;46834;51.100;6.886;2023-01-08T00:13:06;100136.00;;;14.30
60966;BMP180;46834;51.100;6.886;2023-01-08T00:15:33;100128.00;;;14.30
60966;BMP180;46834;51.100;6.886;2023-01-08T00:17:59;100126.00;;;14.30
60966;BMP180;46834;51.100;6.886;2023-01-08T00:20:27;100106.00;;;14.30
60966;BMP180;46834;51.100;6.886;2023-01-08T00:22:53;100130.00;;;14.30
60966;BMP180;46834;51.100;6.886;2023-01-08T00:25:19;100123.00;;;14.30
60966;BMP180;46834;51.100;6.886;2023-01-08T00:27:45;100114.00;;;14.20
60966;BMP180;46834;51.100;6.886;2023-01-08T00:30:12;100112.00;;;14.20
60966;BMP180;46834;51.100;6.886;2023-01-08T00:32:37;100109.00;;;14.20
60966;BMP180;46834;51.100;6.886;2023-01-08T00:35:04;100103.00;;;14.20
60966;BMP180;46834;51.100;6.886;2023-01-08T00:37:30;100118.00;;;14.20
60966;BMP180;46834;51.100;6.886;2023-01-08T00:39:55;100111.00;;;14.20
60966;BMP180;46834;51.100;6.886;2023-01-08T00:42:21;100116.00;;;14.20
60966;BMP180;46834;51.100;6.886;2023-01-08T00:44:47;100105.00;;;14.10
60966;BMP180;46834;51.100;6.886;2023-01-08T00:47:12;100102.00;;;14.10
60966;BMP180;46834;51.100;6.886;2023-01-08T00:49:39;100098.00;;;14.10
60966;BMP180;46834;51.100;6.886;2023-01-08T00:52:05;100096.00;;;14.10
60966;BMP180;46834;51.100;6.886;2023-01-08T00:54:31;100102.00;;;14.10
60966;BMP180;46834;51.100;6.886;2023-01-08T00:56:56;100085.00;;;14.00
60966;BMP180;46834;51.100;6.886;2023-01-08T00:59:22;100081.00;;;14.00
60966;BMP180;46834;51.100;6.886;2023-01-08T01:01:48;100092.00;;;14.00
60966;BMP180;46834;51.100;6.886;2023-01-08T01:04:13;100092.00;;;14.00
60966;BMP180;46834;51.100;6.886;2023-01-08T01:06:40;100083.00;;;14.00
60966;BMP180;46834;51.100;6.886;2023-01-08T01:09:06;100096.00;;;14.10
60966;BMP180;46834;51.100;6.886;2023-01-08T01:11:32;100092.00;;;14.10
60966;BMP180;46834;51.100;6.886;2023-01-08T01:13:58;100079.00;;;14.10
60966;BMP180;46834;51.100;6.886;2023-01-08T01:16:24;100087.00;;;14.10
60966;BMP180;46834;51.100;6.886;2023-01-08T01:18:50;100097.00;;;14.10
60966;BMP180;46834;51.100;6.886;2023-01-08T01:23:57;100089.00;;;14.10
60966;BMP180;46834;51.100;6.886;2023-01-08T01:26:25;100096.00;;;14.10
60966;BMP180;46834;51.100;6.886;2023-01-08T01:28:53;100087.00;;;14.10
60966;BMP180;46834;51.100;6.886;2023-01-08T01:31:21;100080.00;;;14.10
60966;BMP180;46834;51.100;6.886;2023-01-08T01:33:47;100085.00;;;14.10
60966;BMP180;46834;51.100;6.886;2023-01-08T01:36:16;100084.00;;;14.10
60966;BMP180;46834;51.100;6.886;2023-01-08T01:38:48;100083.00;;;14.10
60966;BMP180;46834;51.100;6.886;2023-01-08T01:41:31;100078.00;;;14.00
60966;BMP180;46834;51.100;6.886;2023-01-08T01:52:20;100099.00;;;14.10
60966;BMP180;46834;51.100;6.886;2023-01-08T01:54:49;100093.00;;;14.10
60966;BMP180;46834;51.100;6.886;2023-01-08T01:57:15;100086.00;;;14.10
60966;BMP180;46834;51.100;6.886;2023-01-08T01:59:41;100079.00;;;14.10
60966;BMP180;46834;51.100;6.886;2023-01-08T02:02:07;100073.00;;;14.10
60966;BMP180;46834;51.100;6.886;2023-01-08T02:04:33;100066.00;;;14.20
60966;BMP180;46834;51.100;6.886;2023-01-08T02:08:00;100076.00;;;14.10
60966;BMP180;46834;51.100;6.886;2023-01-08T02:10:19;100052.00;;;14.20
60966;BMP180;46834;51.100;6.886;2023-01-08T02:12:55;100064.00;;;14.10
60966;BMP180;46834;51.100;6.886;2023-01-08T02:15:40;100065.00;;;14.10
60966;BMP180;46834;51.100;6.886;2023-01-08T02:18:19;100061.00;;;14.10
60966;BMP180;46834;51.100;6.886;2023-01-08T02:21:01;100044.00;;;14.10
60966;BMP180;46834;51.100;6.886;2023-01-08T02:26:15;100040.00;;;14.10
60966;BMP180;46834;51.100;6.886;2023-01-08T02:29:03;100034.00;;;14.10
60966;BMP180;46834;51.100;6.886;2023-01-08T02:31:32;100037.00;;;14.10
60966;BMP180;46834;51.100;6.886;2023-01-08T02:33:59;100037.00;;;14.10
60966;BMP180;46834;51.100;6.886;2023-01-08T02:36:42;100034.00;;;14.00
60966;BMP180;46834;51.100;6.886;2023-01-08T02:39:49;100022.00;;;14.00
60966;BMP180;46834;51.100;6.886;2023-01-08T02:42:41;100019.00;;;13.90
60966;BMP180;46834;51.100;6.886;2023-01-08T02:48:21;99996.00;;;13.90
60966;BMP180;46834;51.100;6.886;2023-01-08T02:51:00;100000.00;;;13.90
60966;BMP180;46834;51.100;6.886;2023-01-08T02:53:35;99999.00;;;13.90
60966;BMP180;46834;51.100;6.886;2023-01-08T02:56:08;99992.00;;;13.90
60966;BMP180;46834;51.100;6.886;2023-01-08T02:58:37;99992.00;;;13.90
60966;BMP180;46834;51.100;6.886;2023-01-08T03:01:08;99998.00;;;13.90
60966;BMP180;46834;51.100;6.886;2023-01-08T03:03:37;99994.00;;;13.80
60966;BMP180;46834;51.100;6.886;2023-01-08T03:06:09;99989.00;;;13.80
60966;BMP180;46834;51.100;6.886;2023-01-08T03:08:39;99968.00;;;13.80
60966;BMP180;46834;51.100;6.886;2023-01-08T03:11:10;99981.00;;;13.80
60966;BMP180;46834;51.100;6.886;2023-01-08T03:19:22;99970.00;;;13.80
60966;BMP180;46834;51.100;6.886;2023-01-08T03:21:51;99979.00;;;13.80
60966;BMP180;46834;51.100;6.886;2023-01-08T03:24:27;99975.00;;;13.80
60966;BMP180;46834;51.100;6.886;2023-01-08T03:26:58;99963.00;;;13.80
60966;BMP180;46834;51.100;6.886;2023-01-08T03:29:26;99962.00;;;13.80
60966;BMP180;46834;51.100;6.886;2023-01-08T03:31:59;99969.00;;;13.80
60966;BMP180;46834;51.100;6.886;2023-01-08T03:34:29;99974.00;;;13.80
60966;BMP180;46834;51.100;6.886;2023-01-08T03:36:58;99955.00;;;13.80
60966;BMP180;46834;51.100;6.886;2023-01-08T03:39:39;99975.00;;;13.80
60966;BMP180;46834;51.100;6.886;2023-01-08T03:42:11;99971.00;;;13.80
60966;BMP180;46834;51.100;6.886;2023-01-08T03:44:38;99969.00;;;13.80
60966;BMP180;46834;51.100;6.886;2023-01-08T03:47:06;99972.00;;;13.80
60966;BMP180;46834;51.100;6.886;2023-01-08T03:49:35;99967.00;;;13.80
60966;BMP180;46834;51.100;6.886;2023-01-08T03:52:01;99969.00;;;13.80
60966;BMP180;46834;51.100;6.886;2023-01-08T03:54:34;99962.00;;;13.70
60966;BMP180;46834;51.100;6.886;2023-01-08T03:56:59;99966.00;;;13.80
60966;BMP180;46834;51.100;6.886;2023-01-08T03:59:25;99963.00;;;13.80
60966;BMP180;46834;51.100;6.886;2023-01-08T04:01:51;99965.00;;;13.70
60966;BMP180;46834;51.100;6.886;2023-01-08T04:04:16;99961.00;;;13.70
60966;BMP180;46834;51.100;6.886;2023-01-08T04:06:42;99961.00;;;13.70
60966;BMP180;46834;51.100;6.886;2023-01-08T04:09:08;99952.00;;;13.70
60966;BMP180;46834;51.100;6.886;2023-01-08T04:11:34;99954.00;;;13.70
60966;BMP180;46834;51.100;6.886;2023-01-08T04:14:00;99952.00;;;13.70
60966;BMP180;46834;51.100;6.886;2023-01-08T04:16:26;99939.00;;;13.60
60966;BMP180;46834;51.100;6.886;2023-01-08T04:18:52;99946.00;;;13.60
60966;BMP180;46834;51.100;6.886;2023-01-08T04:21:17;99946.00;;;13.60
60966;BMP180;46834;51.100;6.886;2023-01-08T04:23:43;99947.00;;;13.60
60966;BMP180;46834;51.100;6.886;2023-01-08T04:26:09;99942.00;;;13.60
60966;BMP180;46834;51.100;6.886;2023-01-08T04:28:35;99938.00;;;13.60
60966;BMP180;46834;51.100;6.886;2023-01-08T04:31:08;99946.00;;;13.60
60966;BMP180;46834;51.100;6.886;2023-01-08T04:33:35;99929.00;;;13.60
60966;BMP180;46834;51.100;6.886;2023-01-08T04:36:02;99931.00;;;13.60
60966;BMP180;46834;51.100;6.886;2023-01-08T04:38:28;99931.00;;;13.60
60966;BMP180;46834;51.100;6.886;2023-01-08T04:40:59;99938.00;;;13.60
60966;BMP180;46834;51.100;6.886;2023-01-08T04:43:25;99936.00;;;13.60
60966;BMP180;46834;51.100;6.886;2023-01-08T04:45:51;99934.00;;;13.60
60966;BMP180;46834;51.100;6.886;2023-01-08T04:48:17;99939.00;;;13.60
60966;BMP180;46834;51.100;6.886;2023-01-08T04:50:42;99933.00;;;13.60
60966;BMP180;46834;51.100;6.886;2023-01-08T04:53:08;99927.00;;;13.60
60966;BMP180;46834;51.100;6.886;2023-01-08T04:55:34;99922.00;;;13.60
60966;BMP180;46834;51.100;6.886;2023-01-08T04:57:59;99923.00;;;13.60
60966;BMP180;46834;51.100;6.886;2023-01-08T05:00:25;99920.00;;;13.60
60966;BMP180;46834;51.100;6.886;2023-01-08T05:02:51;99916.00;;;13.70
60966;BMP180;46834;51.100;6.886;2023-01-08T05:05:16;99923.00;;;13.70
60966;BMP180;46834;51.100;6.886;2023-01-08T05:07:42;99915.00;;;13.60
60966;BMP180;46834;51.100;6.886;2023-01-08T05:10:08;99910.00;;;13.70
60966;BMP180;46834;51.100;6.886;2023-01-08T05:12:34;99894.00;;;13.60
60966;BMP180;46834;51.100;6.886;2023-01-08T05:15:00;99898.00;;;13.70
60966;BMP180;46834;51.100;6.886;2023-01-08T05:17:26;99905.00;;;13.70
60966;BMP180;46834;51.100;6.886;2023-01-08T05:19:51;99901.00;;;13.70
60966;BMP180;46834;51.100;6.886;2023-01-08T05:22:17;99912.00;;;13.70
60966;BMP180;46834;51.100;6.886;2023-01-08T05:24:42;99905.00;;;13.70
60966;BMP180;46834;51.100;6.886;2023-01-08T05:27:08;99908.00;;;13.70
60966;BMP180;46834;51.100;6.886;2023-01-08T05:29:34;99900.00;;;13.70
60966;BMP180;46834;51.100;6.886;2023-01-08T05:31:59;99889.00;;;13.70
60966;BMP180;46834;51.100;6.886;2023-01-08T05:34:25;99898.00;;;13.70
60966;BMP180;46834;51.100;6.886;2023-01-08T05:36:51;99900.00;;;13.70
60966;BMP180;46834;51.100;6.886;2023-01-08T05:39:16;99904.00;;;13.70
60966;BMP180;46834;51.100;6.886;2023-01-08T05:41:42;99888.00;;;13.70
60966;BMP180;46834;51.100;6.886;2023-01-08T05:44:09;99904.00;;;13.70
60966;BMP180;46834;51.100;6.886;2023-01-08T05:46:35;99916.00;;;13.70
60966;BMP180;46834;51.100;6.886;2023-01-08T05:49:00;99894.00;;;13.70
60966;BMP180;46834;51.100;6.886;2023-01-08T05:51:26;99903.00;;;13.60
60966;BMP180;46834;51.100;6.886;2023-01-08T05:53:52;99901.00;;;13.60
60966;BMP180;46834;51.100;6.886;2023-01-08T05:56:17;99912.00;;;13.60
60966;BMP180;46834;51.100;6.886;2023-01-08T05:58:43;99894.00;;;13.60
60966;BMP180;46834;51.100;6.886;2023-01-08T06:01:12;99896.00;;;13.60
60966;BMP180;46834;51.100;6.886;2023-01-08T06:03:40;99893.00;;;13.60
60966;BMP180;46834;51.100;6.886;2023-01-08T06:06:07;99884.00;;;13.60
60966;BMP180;46834;51.100;6.886;2023-01-08T06:08:33;99899.00;;;13.60
60966;BMP180;46834;51.100;6.886;2023-01-08T06:11:02;99886.00;;;13.60
60966;BMP180;46834;51.100;6.886;2023-01-08T06:13:28;99896.00;;;13.60
60966;BMP180;46834;51.100;6.886;2023-01-08T06:15:57;99899.00;;;13.60
60966;BMP180;46834;51.100;6.886;2023-01-08T06:18:22;99896.00;;;13.60
60966;BMP180;46834;51.100;6.886;2023-01-08T06:20:50;99905.00;;;13.60
60966;BMP180;46834;51.100;6.886;2023-01-08T06:23:16;99904.00;;;13.60
60966;BMP180;46834;51.100;6.886;2023-01-08T06:25:41;99896.00;;;13.60
60966;BMP180;46834;51.100;6.886;2023-01-08T06:28:07;99897.00;;;13.60
60966;BMP180;46834;51.100;6.886;2023-01-08T06:30:33;99904.00;;;13.60
60966;BMP180;46834;51.100;6.886;2023-01-08T06:33:00;99904.00;;;13.60
60966;BMP180;46834;51.100;6.886;2023-01-08T06:35:26;99906.00;;;13.60
60966;BMP180;46834;51.100;6.886;2023-01-08T06:37:55;99893.00;;;13.60
60966;BMP180;46834;51.100;6.886;2023-01-08T06:40:22;99891.00;;;13.60
60966;BMP180;46834;51.100;6.886;2023-01-08T06:42:48;99887.00;;;13.60
60966;BMP180;46834;51.100;6.886;2023-01-08T06:45:14;99904.00;;;13.60
60966;BMP180;46834;51.100;6.886;2023-01-08T06:47:40;99903.00;;;13.60
60966;BMP180;46834;51.100;6.886;2023-01-08T06:50:06;99915.00;;;13.60
60966;BMP180;46834;51.100;6.886;2023-01-08T06:52:32;99929.00;;;13.70
60966;BMP180;46834;51.100;6.886;2023-01-08T06:54:58;99968.00;;;13.70
60966;BMP180;46834;51.100;6.886;2023-01-08T06:57:23;99973.00;;;13.70
60966;BMP180;46834;51.100;6.886;2023-01-08T06:59:49;99980.00;;;13.70
60966;BMP180;46834;51.100;6.886;2023-01-08T07:02:17;99977.00;;;13.70
60966;BMP180;46834;51.100;6.886;2023-01-08T07:04:43;99968.00;;;13.70
60966;BMP180;46834;51.100;6.886;2023-01-08T07:07:13;99954.00;;;13.70
60966;BMP180;46834;51.100;6.886;2023-01-08T07:09:42;99954.00;;;13.70
60966;BMP180;46834;51.100;6.886;2023-01-08T07:12:14;99967.00;;;13.70
60966;BMP180;46834;51.100;6.886;2023-01-08T07:14:40;99968.00;;;13.70
60966;BMP180;46834;51.100;6.886;2023-01-08T07:17:06;99961.00;;;13.70
60966;BMP180;46834;51.100;6.886;2023-01-08T07:19:32;99976.00;;;13.70
60966;BMP180;46834;51.100;6.886;2023-01-08T07:21:58;99970.00;;;13.70
60966;BMP180;46834;51.100;6.886;2023-01-08T07:24:24;99965.00;;;13.60
60966;BMP180;46834;51.100;6.886;2023-01-08T07:26:50;99976.00;;;13.60
60966;BMP180;46834;51.100;6.886;2023-01-08T07:29:15;99978.00;;;13.60
60966;BMP180;46834;51.100;6.886;2023-01-08T07:31:41;99979.00;;;13.50
60966;BMP180;46834;51.100;6.886;2023-01-08T07:34:07;99977.00;;;13.50
60966;BMP180;46834;51.100;6.886;2023-01-08T07:36:32;99976.00;;;13.40
60966;BMP180;46834;51.100;6.886;2023-01-08T07:38:58;99973.00;;;13.40
60966;BMP180;46834;51.100;6.886;2023-01-08T07:41:23;99965.00;;;13.30
60966;BMP180;46834;51.100;6.886;2023-01-08T07:43:50;99962.00;;;13.30
60966;BMP180;46834;51.100;6.886;2023-01-08T07:46:16;99963.00;;;13.30
60966;BMP180;46834;51.100;6.886;2023-01-08T07:48:41;99958.00;;;13.30
60966;BMP180;46834;51.100;6.886;2023-01-08T07:51:07;99961.00;;;13.30
60966;BMP180;46834;51.100;6.886;2023-01-08T07:53:35;99950.00;;;13.20
60966;BMP180;46834;51.100;6.886;2023-01-08T07:56:08;99948.00;;;13.20
60966;BMP180;46834;51.100;6.886;2023-01-08T07:58:35;99949.00;;;13.20
60966;BMP180;46834;51.100;6.886;2023-01-08T08:01:02;99939.00;;;13.20
60966;BMP180;46834;51.100;6.886;2023-01-08T08:03:28;99950.00;;;13.20
60966;BMP180;46834;51.100;6.886;2023-01-08T08:05:54;99955.00;;;13.20
60966;BMP180;46834;51.100;6.886;2023-01-08T08:08:19;99950.00;;;13.20
60966;BMP180;46834;51.100;6.886;2023-01-08T08:10:46;99944.00;;;13.10
60966;BMP180;46834;51.100;6.886;2023-01-08T08:13:12;99946.00;;;13.10
60966;BMP180;46834;51.100;6.886;2023-01-08T08:15:38;99937.00;;;13.10
60966;BMP180;46834;51.100;6.886;2023-01-08T08:18:06;99937.00;;;13.10
60966;BMP180;46834;51.100;6.886;2023-01-08T08:20:32;99944.00;;;13.10
60966;BMP180;46834;51.100;6.886;2023-01-08T08:23:09;99954.00;;;13.10
60966;BMP180;46834;51.100;6.886;2023-01-08T08:25:35;99939.00;;;13.10
60966;BMP180;46834;51.100;6.886;2023-01-08T08:28:02;99953.00;;;13.10
60966;BMP180;46834;51.100;6.886;2023-01-08T08:30:31;99945.00;;;13.10
60966;BMP180;46834;51.100;6.886;2023-01-08T08:33:00;99932.00;;;13.10
60966;BMP180;46834;51.100;6.886;2023-01-08T08:35:27;99938.00;;;13.10
60966;BMP180;46834;51.100;6.886;2023-01-08T08:37:54;99928.00;;;13.10
60966;BMP180;46834;51.100;6.886;2023-01-08T08:40:19;99935.00;;;13.10
60966;BMP180;46834;51.100;6.886;2023-01-08T08:42:45;99920.00;;;13.10
60966;BMP180;46834;51.100;6.886;2023-01-08T08:45:11;99924.00;;;13.10
60966;BMP180;46834;51.100;6.886;2023-01-08T08:47:37;99920.00;;;13.10
60966;BMP180;46834;51.100;6.886;2023-01-08T08:50:04;99921.00;;;13.10
60966;BMP180;46834;51.100;6.886;2023-01-08T08:52:32;99914.00;;;13.10
60966;BMP180;46834;51.100;6.886;2023-01-08T08:54:58;99908.00;;;13.10
60966;BMP180;46834;51.100;6.886;2023-01-08T08:57:25;99906.00;;;13.10
60966;BMP180;46834;51.100;6.886;2023-01-08T08:59:51;99916.00;;;13.10
60966;BMP180;46834;51.100;6.886;2023-01-08T09:02:17;99909.00;;;13.10
60966;BMP180;46834;51.100;6.886;2023-01-08T09:04:43;99908.00;;;13.10
60966;BMP180;46834;51.100;6.886;2023-01-08T09:07:09;99910.00;;;13.10
60966;BMP180;46834;51.100;6.886;2023-01-08T09:09:34;99911.00;;;13.10
60966;BMP180;46834;51.100;6.886;2023-01-08T09:12:00;99909.00;;;13.10
60966;BMP180;46834;51.100;6.886;2023-01-08T09:14:26;99913.00;;;13.10
60966;BMP180;46834;51.100;6.886;2023-01-08T09:16:52;99911.00;;;13.10
60966;BMP180;46834;51.100;6.886;2023-01-08T09:19:18;99899.00;;;13.10
60966;BMP180;46834;51.100;6.886;2023-01-08T09:21:43;99902.00;;;13.10
60966;BMP180;46834;51.100;6.886;2023-01-08T09:24:09;99901.00;;;13.10
60966;BMP180;46834;51.100;6.886;2023-01-08T09:26:35;99900.00;;;13.10
60966;BMP180;46834;51.100;6.886;2023-01-08T09:29:00;99901.00;;;13.10
60966;BMP180;46834;51.100;6.886;2023-01-08T09:31:26;99892.00;;;13.10
60966;BMP180;46834;51.100;6.886;2023-01-08T09:33:52;99902.00;;;13.10
60966;BMP180;46834;51.100;6.886;2023-01-08T09:36:18;99906.00;;;13.10
60966;BMP180;46834;51.100;6.886;2023-01-08T09:38:44;99888.00;;;13.10
60966;BMP180;46834;51.100;6.886;2023-01-08T09:41:33;99894.00;;;13.00
60966;BMP180;46834;51.100;6.886;2023-01-08T09:44:04;99905.00;;;13.10
60966;BMP180;46834;51.100;6.886;2023-01-08T09:46:30;99907.00;;;13.20
60966;BMP180;46834;51.100;6.886;2023-01-08T09:49:05;99897.00;;;13.20
60966;BMP180;46834;51.100;6.886;2023-01-08T09:51:36;99881.00;;;13.20
60966;BMP180;46834;51.100;6.886;2023-01-08T09:54:04;99879.00;;;13.30
60966;BMP180;46834;51.100;6.886;2023-01-08T09:56:33;99887.00;;;13.30
60966;BMP180;46834;51.100;6.886;2023-01-08T09:59:02;99888.00;;;13.30
60966;BMP180;46834;51.100;6.886;2023-01-08T10:01:37;99882.00;;;13.30
60966;BMP180;46834;51.100;6.886;2023-01-08T10:06:59;99885.00;;;13.40
60966;BMP180;46834;51.100;6.886;2023-01-08T10:09:29;99871.00;;;13.50
60966;BMP180;46834;51.100;6.886;2023-01-08T10:12:01;99873.00;;;13.60
60966;BMP180;46834;51.100;6.886;2023-01-08T10:14:32;99877.00;;;13.70
60966;BMP180;46834;51.100;6.886;2023-01-08T10:17:09;99857.00;;;13.80
60966;BMP180;46834;51.100;6.886;2023-01-08T10:19:40;99853.00;;;13.90
60966;BMP180;46834;51.100;6.886;2023-01-08T10:22:16;99860.00;;;13.90
60966;BMP180;46834;51.100;6.886;2023-01-08T10:24:41;99853.00;;;14.00
60966;BMP180;46834;51.100;6.886;2023-01-08T10:27:22;99849.00;;;14.10
60966;BMP180;46834;51.100;6.886;2023-01-08T10:29:51;99843.00;;;14.10
60966;BMP180;46834;51.100;6.886;2023-01-08T10:32:22;99844.00;;;14.20
60966;BMP180;46834;51.100;6.886;2023-01-08T10:34:52;99830.00;;;14.20
60966;BMP180;46834;51.100;6.886;2023-01-08T10:37:29;99830.00;;;14.20
60966;BMP180;46834;51.100;6.886;2023-01-08T10:40:07;99825.00;;;14.20
60966;BMP180;46834;51.100;6.886;2023-01-08T10:42:42;99817.00;;;14.30
60966;BMP180;46834;51.100;6.886;2023-01-08T10:45:37;99820.00;;;14.30
60966;BMP180;46834;51.100;6.886;2023-01-08T10:48:05;99812.00;;;14.30
60966;BMP180;46834;51.100;6.886;2023-01-08T10:50:33;99817.00;;;14.40
60966;BMP180;46834;51.100;6.886;2023-01-08T10:53:05;99806.00;;;14.40
60966;BMP180;46834;51.100;6.886;2023-01-08T10:55:45;99803.00;;;14.40
60966;BMP180;46834;51.100;6.886;2023-01-08T11:00:37;99788.00;;;14.50
60966;BMP180;46834;51.100;6.886;2023-01-08T11:03:06;99787.00;;;14.50
60966;BMP180;46834;51.100;6.886;2023-01-08T11:05:36;99788.00;;;14.50
60966;BMP180;46834;51.100;6.886;2023-01-08T11:08:07;99770.00;;;14.60
60966;BMP180;46834;51.100;6.886;2023-01-08T11:10:37;99771.00;;;14.60
60966;BMP180;46834;51.100;6.886;2023-01-08T11:13:06;99765.00;;;14.60
60966;BMP180;46834;51.100;6.886;2023-01-08T11:15:40;99763.00;;;14.70
60966;BMP180;46834;51.100;6.886;2023-01-08T11:18:24;99762.00;;;14.70
60966;BMP180;46834;51.100;6.886;2023-01-08T11:20:52;99763.00;;;14.80
60966;BMP180;46834;51.100;6.886;2023-01-08T11:23:24;99750.00;;;14.80
60966;BMP180;46834;51.100;6.886;2023-01-08T11:26:19;99761.00;;;14.80
60966;BMP180;46834;51.100;6.886;2023-01-08T11:29:14;99758.00;;;14.80
60966;BMP180;46834;51.100;6.886;2023-01-08T11:32:04;99747.00;;;14.90
60966;BMP180;46834;51.100;6.886;2023-01-08T11:37:19;99737.00;;;15.00
60966;BMP180;46834;51.100;6.886;2023-01-08T11:39:45;99741.00;;;15.10
60966;BMP180;46834;51.100;6.886;2023-01-08T11:42:52;99729.00;;;15.00
60966;BMP180;46834;51.100;6.886;2023-01-08T11:45:56;99724.00;;;15.00
60966;BMP180;46834;51.100;6.886;2023-01-08T11:51:14;99713.00;;;15.00
60966;BMP180;46834;51.100;6.886;2023-01-08T11:53:46;99710.00;;;15.00
60966;BMP180;46834;51.100;6.886;2023-01-08T12:05:29;99696.00;;;14.90
60966;BMP180;46834;51.100;6.886;2023-01-08T12:11:23;99697.00;;;14.80
60966;BMP180;46834;51.100;6.886;2023-01-08T12:32:35;99688.00;;;14.70
60966;BMP180;46834;51.100;6.886;2023-01-08T12:35:14;99677.00;;;14.80
60966;BMP180;46834;51.100;6.886;2023-01-08T12:38:04;99686.00;;;14.80
60966;BMP180;46834;51.100;6.886;2023-01-08T12:41:13;99684.00;;;14.90
60966;BMP180;46834;51.100;6.886;2023-01-08T12:44:05;99681.00;;;14.90
60966;BMP180;46834;51.100;6.886;2023-01-08T12:46:38;99678.00;;;15.10
60966;BMP180;46834;51.100;6.886;2023-01-08T12:49:05;99668.00;;;15.10
60966;BMP180;46834;51.100;6.886;2023-01-08T12:51:52;99685.00;;;15.10
60966;BMP180;46834;51.100;6.886;2023-01-08T12:57:29;99679.00;;;15.20
60966;BMP180;46834;51.100;6.886;2023-01-08T13:00:40;99672.00;;;15.10
60966;BMP180;46834;51.100;6.886;2023-01-08T13:03:13;99675.00;;;15.20
60966;BMP180;46834;51.100;6.886;2023-01-08T13:05:42;99670.00;;;15.30
60966;BMP180;46834;51.100;6.886;2023-01-08T13:08:33;99669.00;;;15.20
60966;BMP180;46834;51.100;6.886;2023-01-08T13:11:01;99670.00;;;15.30
60966;BMP180;46834;51.100;6.886;2023-01-08T13:13:39;99674.00;;;15.30
60966;BMP180;46834;51.100;6.886;2023-01-08T13:16:19;99657.00;;;15.30
60966;BMP180;46834;51.100;6.886;2023-01-08T13:18:58;99642.00;;;15.20
60966;BMP180;46834;51.100;6.886;2023-01-08T13:21:52;99652.00;;;15.20
60966;BMP180;46834;51.100;6.886;2023-01-08T13:24:36;99648.00;;;15.20
60966;BMP180;46834;51.100;6.886;2023-01-08T13:27:10;99652.00;;;15.20
60966;BMP180;46834;51.100;6.886;2023-01-08T13:29:43;99652.00;;;15.10
60966;BMP180;46834;51.100;6.886;2023-01-08T13:32:47;99651.00;;;15.00
60966;BMP180;46834;51.100;6.886;2023-01-08T13:37:38;99637.00;;;15.10
60966;BMP180;46834;51.100;6.886;2023-01-08T13:40:38;99635.00;;;15.00
60966;BMP180;46834;51.100;6.886;2023-01-08T13:43:11;99621.00;;;15.10
60966;BMP180;46834;51.100;6.886;2023-01-08T13:45:38;99618.00;;;15.10
60966;BMP180;46834;51.100;6.886;2023-01-08T13:48:05;99627.00;;;15.10
60966;BMP180;46834;51.100;6.886;2023-01-08T13:50:31;99627.00;;;15.10
60966;BMP180;46834;51.100;6.886;2023-01-08T13:53:02;99629.00;;;15.10
60966;BMP180;46834;51.100;6.886;2023-01-08T13:58:01;99617.00;;;15.10
60966;BMP180;46834;51.100;6.886;2023-01-08T14:00:44;99616.00;;;15.10
60966;BMP180;46834;51.100;6.886;2023-01-08T14:03:34;99614.00;;;15.10
60966;BMP180;46834;51.100;6.886;2023-01-08T14:06:07;99619.00;;;15.10
60966;BMP180;46834;51.100;6.886;2023-01-08T14:08:48;99616.00;;;15.10
60966;BMP180;46834;51.100;6.886;2023-01-08T14:11:14;99598.00;;;15.10
60966;BMP180;46834;51.100;6.886;2023-01-08T14:13:42;99612.00;;;15.10
60966;BMP180;46834;51.100;6.886;2023-01-08T14:16:13;99610.00;;;15.10
60966;BMP180;46834;51.100;6.886;2023-01-08T14:18:43;99610.00;;;15.10
60966;BMP180;46834;51.100;6.886;2023-01-08T14:21:12;99600.00;;;15.10
60966;BMP180;46834;51.100;6.886;2023-01-08T14:23:46;99603.00;;;15.10
60966;BMP180;46834;51.100;6.886;2023-01-08T14:26:31;99582.00;;;15.00
60966;BMP180;46834;51.100;6.886;2023-01-08T14:29:00;99582.00;;;15.10
60966;BMP180;46834;51.100;6.886;2023-01-08T14:31:27;99586.00;;;15.00
60966;BMP180;46834;51.100;6.886;2023-01-08T14:33:56;99578.00;;;15.00
60966;BMP180;46834;51.100;6.886;2023-01-08T14:36:24;99582.00;;;15.00
60966;BMP180;46834;51.100;6.886;2023-01-08T14:38:50;99574.00;;;15.00
60966;BMP180;46834;51.100;6.886;2023-01-08T14:41:34;99580.00;;;14.90
60966;BMP180;46834;51.100;6.886;2023-01-08T14:44:21;99572.00;;;14.90
60966;BMP180;46834;51.100;6.886;2023-01-08T14:46:51;99573.00;;;14.90
60966;BMP180;46834;51.100;6.886;2023-01-08T14:49:28;99573.00;;;14.80
60966;BMP180;46834;51.100;6.886;2023-01-08T14:51:57;99569.00;;;14.80
60966;BMP180;46834;51.100;6.886;2023-01-08T14:54:31;99571.00;;;14.70
60966;BMP180;46834;51.100;6.886;2023-01-08T14:56:59;99567.00;;;14.80
60966;BMP180;46834;51.100;6.886;2023-01-08T14:59:32;99570.00;;;14.70
60966;BMP180;46834;51.100;6.886;2023-01-08T15:02:01;99564.00;;;14.70
60966;BMP180;46834;51.100;6.886;2023-01-08T15:04:29;99567.00;;;14.70
60966;BMP180;46834;51.100;6.886;2023-01-08T15:07:19;99553.00;;;14.60
60966;BMP180;46834;51.100;6.886;2023-01-08T15:09:59;99561.00;;;14.60
60966;BMP180;46834;51.100;6.886;2023-01-08T15:12:29;99562.00;;;14.70
60966;BMP180;46834;51.100;6.886;2023-01-08T15:15:10;99554.00;;;14.60
60966;BMP180;46834;51.100;6.886;2023-01-08T15:17:39;99543.00;;;14.60
60966;BMP180;46834;51.100;6.886;2023-01-08T15:20:06;99556.00;;;14.70
60966;BMP180;46834;51.100;6.886;2023-01-08T15:22:44;99546.00;;;14.60
60966;BMP180;46834;51.100;6.886;2023-01-08T15:25:27;99540.00;;;14.60
60966;BMP180;46834;51.100;6.886;2023-01-08T15:28:02;99554.00;;;14.50
60966;BMP180;46834;51.100;6.886;2023-01-08T15:30:37;99546.00;;;14.50
60966;BMP180;46834;51.100;6.886;2023-01-08T15:33:19;99538.00;;;14.50
60966;BMP180;46834;51.100;6.886;2023-01-08T15:35:45;99531.00;;;14.50
60966;BMP180;46834;51.100;6.886;2023-01-08T15:38:12;99533.00;;;14.50